createdAt,value
2018-07-14T00:00:23.807Z,23.24
2018-07-14T00:01:23.567Z,23.2
2018-07-14T00:02:23.596Z,23.25
2018-07-14T00:03:23.879Z,23.36
2018-07-14T00:04:23.901Z,23.27
2018-07-14T00:05:23.669Z,23.24
2018-07-14T00:06:23.952Z,23.17
2018-07-14T00:07:23.462Z,23.13
2018-07-14T00:08:24.000Z,23.15
2018-07-14T00:09:23.769Z,23.13
2018-07-14T00:10:24.059Z,23.1
2018-07-14T00:11:23.822Z,23.05
2018-07-14T00:12:24.102Z,23.08
2018-07-14T00:13:23.608Z,22.99
2018-07-14T00:14:23.633Z,22.98
2018-07-14T00:15:23.920Z,23
2018-07-14T00:16:24.202Z,23.02
2018-07-14T00:17:24.237Z,22.98
2018-07-14T00:18:23.992Z,22.96
2018-07-14T00:19:24.278Z,22.85
2018-07-14T00:20:24.046Z,22.9
2018-07-14T00:21:24.325Z,22.85
2018-07-14T00:22:24.358Z,22.84
2018-07-14T00:23:24.374Z,22.85
2018-07-14T00:24:24.184Z,22.88
2018-07-14T00:25:24.421Z,22.81
2018-07-14T00:26:24.443Z,22.84
2018-07-14T00:27:24.471Z,22.75
2018-07-14T00:28:24.496Z,22.8
2018-07-14T00:29:24.259Z,22.84
2018-07-14T00:30:24.284Z,22.7
2018-07-14T00:31:24.320Z,22.69
2018-07-14T00:32:24.342Z,22.69
2018-07-14T00:33:24.377Z,22.7
2018-07-14T00:34:24.643Z,22.59
2018-07-14T00:35:24.664Z,22.63
2018-07-14T00:36:24.691Z,22.63
2018-07-14T00:37:24.727Z,22.57
2018-07-14T00:38:24.743Z,22.57
2018-07-14T00:39:24.783Z,22.6
2018-07-14T00:40:24.788Z,22.54
2018-07-14T00:41:24.830Z,22.54
2018-07-14T00:42:24.575Z,22.55
2018-07-14T00:43:24.861Z,22.51
2018-07-14T00:44:24.680Z,22.44
2018-07-14T00:45:24.906Z,22.5
2018-07-14T00:46:24.681Z,22.48
2018-07-14T00:47:24.700Z,22.36
2018-07-14T00:48:24.987Z,22.48
2018-07-14T00:49:25.008Z,22.44
2018-07-14T00:50:25.032Z,22.5
2018-07-14T00:51:25.053Z,22.47
2018-07-14T00:52:25.077Z,22.38
2018-07-14T00:53:25.103Z,22.43
2018-07-14T00:54:24.870Z,22.38
2018-07-14T00:55:24.904Z,22.39
2018-07-14T00:56:25.172Z,22.38
2018-07-14T00:57:25.202Z,22.3
2018-07-14T00:58:25.222Z,22.22
2018-07-14T00:59:24.986Z,22.3
2018-07-14T01:00:25.030Z,22.28
2018-07-14T01:01:25.299Z,22.26
2018-07-14T01:02:25.323Z,22.23
2018-07-14T01:03:25.352Z,22.25
2018-07-14T01:04:25.375Z,22.25
2018-07-14T01:05:25.392Z,22.18
2018-07-14T01:06:25.421Z,22.17
2018-07-14T01:07:25.451Z,22.18
2018-07-14T01:08:24.944Z,22.11
2018-07-14T01:09:25.487Z,22.18
2018-07-14T01:10:25.510Z,22.15
2018-07-14T01:11:25.280Z,22.15
2018-07-14T01:12:25.562Z,22.04
2018-07-14T01:13:25.322Z,22.02
2018-07-14T01:14:25.606Z,22.04
2018-07-14T01:15:25.372Z,22.06
2018-07-14T01:16:25.658Z,22
2018-07-14T01:17:25.677Z,22.06
2018-07-14T01:18:25.462Z,22.02
2018-07-14T01:19:25.476Z,21.96
2018-07-14T01:20:25.490Z,21.91
2018-07-14T01:21:25.773Z,21.93
2018-07-14T01:22:25.538Z,21.98
2018-07-14T01:23:25.300Z,21.91
2018-07-14T01:24:25.844Z,21.8
2018-07-14T01:25:25.871Z,21.92
2018-07-14T01:26:25.635Z,21.91
2018-07-14T01:27:25.923Z,21.82
2018-07-14T01:28:25.680Z,21.8
2018-07-14T01:29:25.703Z,21.8
2018-07-14T01:30:25.986Z,21.79
2018-07-14T01:31:25.752Z,21.79
2018-07-14T01:32:26.040Z,21.76
2018-07-14T01:33:26.056Z,21.77
2018-07-14T01:34:25.833Z,21.75
2018-07-14T01:35:26.106Z,21.7
2018-07-14T01:36:25.871Z,21.72
2018-07-14T01:37:26.156Z,21.66
2018-07-14T01:38:26.176Z,21.66
2018-07-14T01:39:25.685Z,21.58
2018-07-14T01:40:25.963Z,21.57
2018-07-14T01:41:26.249Z,21.62
2018-07-14T01:42:26.010Z,21.6
2018-07-14T01:43:26.292Z,21.61
2018-07-14T01:44:26.361Z,21.5
2018-07-14T01:45:26.382Z,21.57
2018-07-14T01:46:26.104Z,21.52
2018-07-14T01:47:26.396Z,21.46
2018-07-14T01:48:26.414Z,21.54
2018-07-14T01:49:26.437Z,21.5
2018-07-14T01:50:26.460Z,21.52
2018-07-14T01:51:26.483Z,21.45
2018-07-14T01:52:26.511Z,21.48
2018-07-14T01:53:26.530Z,21.42
2018-07-14T01:54:26.316Z,21.46
2018-07-14T01:55:26.316Z,21.39
2018-07-14T01:56:26.600Z,21.36
2018-07-14T01:57:26.362Z,21.37
2018-07-14T01:58:26.389Z,21.3
2018-07-14T01:59:26.412Z,21.36
2018-07-14T02:00:26.433Z,21.33
2018-07-14T02:01:26.460Z,21.39
2018-07-14T02:02:26.480Z,21.3
2018-07-14T02:03:26.764Z,21.42
2018-07-14T02:04:26.525Z,21.35
2018-07-14T02:05:26.558Z,21.29
2018-07-14T02:06:26.837Z,21.35
2018-07-14T02:07:26.600Z,21.36
2018-07-14T02:08:26.617Z,21.33
2018-07-14T02:09:26.645Z,21.24
2018-07-14T02:10:26.678Z,21.25
2018-07-14T02:11:26.686Z,21.22
2018-07-14T02:12:26.451Z,21.22
2018-07-14T02:13:26.740Z,21.24
2018-07-14T02:14:26.497Z,21.17
2018-07-14T02:15:27.040Z,21.2
2018-07-14T02:16:27.067Z,21.18
2018-07-14T02:17:26.829Z,21.17
2018-07-14T02:18:26.853Z,21.14
2018-07-14T02:19:26.876Z,21.07
2018-07-14T02:20:26.897Z,21.07
2018-07-14T02:21:26.922Z,21.12
2018-07-14T02:22:26.942Z,21.06
2018-07-14T02:23:26.972Z,21.02
2018-07-14T02:24:27.015Z,21.03
2018-07-14T02:25:27.332Z,21
2018-07-14T02:26:27.034Z,21.06
2018-07-14T02:27:26.806Z,20.99
2018-07-14T02:28:27.082Z,21.03
2018-07-14T02:29:27.105Z,20.92
2018-07-14T02:30:27.130Z,20.96
2018-07-14T02:31:27.413Z,20.96
2018-07-14T02:32:27.175Z,20.93
2018-07-14T02:33:27.465Z,20.92
2018-07-14T02:34:26.960Z,20.93
2018-07-14T02:35:27.511Z,20.93
2018-07-14T02:36:27.539Z,20.87
2018-07-14T02:37:27.560Z,20.85
2018-07-14T02:38:27.571Z,20.87
2018-07-14T02:39:27.338Z,20.78
2018-07-14T02:40:27.627Z,20.78
2018-07-14T02:41:27.642Z,20.8
2018-07-14T02:42:27.405Z,20.82
2018-07-14T02:43:27.438Z,20.8
2018-07-14T02:44:27.714Z,20.84
2018-07-14T02:45:27.754Z,20.81
2018-07-14T02:46:27.800Z,20.77
2018-07-14T02:47:27.798Z,20.81
2018-07-14T02:48:27.824Z,20.75
2018-07-14T02:49:27.824Z,20.75
2018-07-14T02:50:27.852Z,20.74
2018-07-14T02:51:27.612Z,20.72
2018-07-14T02:52:27.635Z,20.75
2018-07-14T02:53:27.926Z,20.72
2018-07-14T02:54:27.942Z,20.72
2018-07-14T02:55:27.705Z,20.63
2018-07-14T02:56:27.724Z,20.6
2018-07-14T02:57:27.749Z,20.65
2018-07-14T02:58:27.774Z,20.58
2018-07-14T02:59:27.536Z,20.58
2018-07-14T03:00:28.083Z,20.59
2018-07-14T03:01:28.102Z,20.56
2018-07-14T03:02:28.135Z,20.65
2018-07-14T03:03:27.891Z,20.58
2018-07-14T03:04:28.224Z,20.63
2018-07-14T03:05:28.197Z,20.5
2018-07-14T03:06:27.956Z,20.56
2018-07-14T03:07:28.243Z,20.51
2018-07-14T03:08:28.271Z,20.47
2018-07-14T03:09:28.019Z,20.51
2018-07-14T03:10:28.045Z,20.47
2018-07-14T03:11:28.329Z,20.48
2018-07-14T03:12:28.364Z,20.44
2018-07-14T03:13:28.115Z,20.47
2018-07-14T03:14:28.410Z,20.43
2018-07-14T03:15:28.417Z,20.5
2018-07-14T03:16:28.445Z,20.5
2018-07-14T03:17:28.202Z,20.39
2018-07-14T03:18:28.502Z,20.47
2018-07-14T03:19:28.407Z,20.43
2018-07-14T03:20:28.532Z,20.41
2018-07-14T03:21:28.571Z,20.4
2018-07-14T03:22:28.581Z,20.41
2018-07-14T03:23:28.600Z,20.37
2018-07-14T03:24:28.366Z,20.39
2018-07-14T03:25:28.389Z,20.47
2018-07-14T03:26:28.407Z,20.32
2018-07-14T03:27:28.690Z,20.44
2018-07-14T03:28:28.454Z,20.43
2018-07-14T03:29:28.475Z,20.32
2018-07-14T03:30:28.244Z,20.37
2018-07-14T03:31:28.263Z,20.34
2018-07-14T03:32:28.546Z,20.26
2018-07-14T03:33:28.569Z,20.36
2018-07-14T03:34:28.848Z,20.28
2018-07-14T03:35:28.870Z,20.26
2018-07-14T03:36:28.630Z,20.34
2018-07-14T03:37:28.913Z,20.29
2018-07-14T03:38:28.941Z,20.31
2018-07-14T03:39:28.700Z,20.32
2018-07-14T03:40:28.719Z,20.26
2018-07-14T03:41:29.002Z,20.29
2018-07-14T03:42:29.027Z,20.28
2018-07-14T03:43:29.050Z,20.28
2018-07-14T03:44:28.816Z,20.26
2018-07-14T03:45:28.840Z,20.26
2018-07-14T03:46:29.123Z,20.13
2018-07-14T03:47:29.140Z,20.25
2018-07-14T03:48:29.161Z,20.14
2018-07-14T03:49:28.665Z,20.13
2018-07-14T03:50:28.947Z,20.14
2018-07-14T03:51:28.969Z,20.07
2018-07-14T03:52:28.990Z,20.11
2018-07-14T03:53:29.068Z,20.11
2018-07-14T03:54:29.037Z,20.11
2018-07-14T03:55:29.319Z,20.18
2018-07-14T03:56:28.819Z,20.16
2018-07-14T03:57:29.361Z,20.11
2018-07-14T03:58:29.388Z,20.18
2018-07-14T03:59:29.405Z,20.18
2018-07-14T04:00:29.432Z,20.19
2018-07-14T04:01:29.461Z,20.16
2018-07-14T04:02:29.214Z,20.06
2018-07-14T04:03:29.505Z,20.11
2018-07-14T04:04:29.000Z,20.02
2018-07-14T04:05:29.283Z,20.11
2018-07-14T04:06:29.690Z,20.14
2018-07-14T04:07:29.328Z,20.02
2018-07-14T04:08:29.608Z,20.06
2018-07-14T04:09:29.110Z,20.07
2018-07-14T04:10:29.655Z,20.03
2018-07-14T04:11:29.678Z,20.11
2018-07-14T04:12:29.438Z,20
2018-07-14T04:13:29.464Z,20.07
2018-07-14T04:14:29.745Z,20.02
2018-07-14T04:15:29.764Z,20.07
2018-07-14T04:16:29.527Z,20.03
2018-07-14T04:17:29.818Z,20.02
2018-07-14T04:18:29.880Z,20.02
2018-07-14T04:19:29.879Z,20.02
2018-07-14T04:20:29.884Z,20.03
2018-07-14T04:21:29.381Z,20.02
2018-07-14T04:22:29.928Z,20.03
2018-07-14T04:23:29.696Z,19.96
2018-07-14T04:24:29.444Z,20
2018-07-14T04:25:29.998Z,20.02
2018-07-14T04:26:30.017Z,20
2018-07-14T04:27:29.767Z,19.91
2018-07-14T04:28:29.804Z,20
2018-07-14T04:29:29.559Z,20.03
2018-07-14T04:30:29.856Z,19.94
2018-07-14T04:31:29.860Z,19.99
2018-07-14T04:32:30.148Z,19.96
2018-07-14T04:33:30.165Z,19.94
2018-07-14T04:34:30.195Z,19.94
2018-07-14T04:35:30.215Z,20.03
2018-07-14T04:36:30.286Z,19.94
2018-07-14T04:37:29.995Z,20
2018-07-14T04:38:30.273Z,20.03
2018-07-14T04:39:30.299Z,19.91
2018-07-14T04:40:30.062Z,19.96
2018-07-14T04:41:30.352Z,20
2018-07-14T04:42:30.521Z,19.92
2018-07-14T04:43:30.229Z,19.91
2018-07-14T04:44:30.409Z,19.99
2018-07-14T04:45:30.169Z,20
2018-07-14T04:46:30.194Z,19.99
2018-07-14T04:47:30.216Z,19.96
2018-07-14T04:48:30.513Z,19.94
2018-07-14T04:49:30.355Z,19.95
2018-07-14T04:50:30.286Z,20.04
2018-07-14T04:51:30.565Z,19.96
2018-07-14T04:52:30.585Z,20
2018-07-14T04:53:30.095Z,20.02
2018-07-14T04:54:30.371Z,19.99
2018-07-14T04:55:30.391Z,19.96
2018-07-14T04:56:30.674Z,19.96
2018-07-14T04:57:30.175Z,19.94
2018-07-14T04:58:30.718Z,19.96
2018-07-14T04:59:30.485Z,19.94
2018-07-14T05:00:30.772Z,19.91
2018-07-14T05:01:30.789Z,19.96
2018-07-14T05:02:30.807Z,20.06
2018-07-14T05:03:30.570Z,19.99
2018-07-14T05:04:30.588Z,20
2018-07-14T05:05:30.874Z,19.96
2018-07-14T05:06:31.084Z,19.95
2018-07-14T05:07:30.658Z,19.99
2018-07-14T05:08:30.679Z,19.94
2018-07-14T05:09:30.967Z,19.95
2018-07-14T05:10:30.990Z,19.94
2018-07-14T05:11:30.749Z,19.92
2018-07-14T05:12:31.031Z,19.92
2018-07-14T05:13:31.054Z,19.95
2018-07-14T05:14:30.556Z,19.94
2018-07-14T05:15:30.836Z,20.04
2018-07-14T05:16:30.597Z,20.06
2018-07-14T05:17:31.140Z,19.99
2018-07-14T05:18:31.172Z,19.99
2018-07-14T05:19:30.923Z,19.94
2018-07-14T05:20:30.942Z,20.03
2018-07-14T05:21:31.481Z,19.96
2018-07-14T05:22:30.985Z,20.04
2018-07-14T05:23:31.012Z,19.95
2018-07-14T05:24:31.298Z,20.11
2018-07-14T05:25:31.330Z,20
2018-07-14T05:26:31.075Z,20.02
2018-07-14T05:27:31.365Z,20.02
2018-07-14T05:28:31.537Z,20
2018-07-14T05:29:31.145Z,20
2018-07-14T05:30:31.425Z,20.03
2018-07-14T05:31:31.450Z,20.07
2018-07-14T05:32:31.208Z,20.04
2018-07-14T05:33:31.234Z,20.11
2018-07-14T05:34:31.511Z,20.04
2018-07-14T05:35:31.276Z,20.04
2018-07-14T05:36:31.564Z,20.06
2018-07-14T05:37:31.319Z,20.18
2018-07-14T05:38:31.080Z,20.18
2018-07-14T05:39:31.622Z,20.1
2018-07-14T05:40:31.647Z,20.13
2018-07-14T05:41:31.146Z,20.11
2018-07-14T05:42:31.688Z,20.1
2018-07-14T05:43:31.720Z,20.11
2018-07-14T05:44:31.739Z,20.19
2018-07-14T05:45:31.239Z,20.19
2018-07-14T05:46:31.779Z,20.18
2018-07-14T05:47:31.538Z,20.13
2018-07-14T05:48:31.871Z,20.13
2018-07-14T05:49:31.897Z,20.16
2018-07-14T05:50:31.864Z,20.16
2018-07-14T05:51:31.364Z,20.14
2018-07-14T05:52:31.649Z,20.28
2018-07-14T05:53:31.669Z,20.29
2018-07-14T05:54:31.709Z,20.28
2018-07-14T05:55:31.714Z,20.25
2018-07-14T05:56:31.763Z,20.22
2018-07-14T05:57:32.022Z,20.29
2018-07-14T05:58:32.040Z,20.31
2018-07-14T05:59:31.810Z,20.39
2018-07-14T06:00:31.821Z,20.32
2018-07-14T06:01:31.879Z,20.34
2018-07-14T06:02:32.142Z,20.39
2018-07-14T06:03:31.892Z,20.31
2018-07-14T06:04:31.912Z,20.44
2018-07-14T06:05:32.197Z,20.41
2018-07-14T06:06:32.216Z,20.43
2018-07-14T06:07:31.978Z,20.41
2018-07-14T06:08:32.259Z,20.34
2018-07-14T06:09:32.023Z,20.48
2018-07-14T06:10:32.046Z,20.41
2018-07-14T06:11:32.071Z,20.48
2018-07-14T06:12:32.089Z,20.44
2018-07-14T06:13:32.113Z,20.43
2018-07-14T06:14:32.135Z,20.41
2018-07-14T06:15:32.609Z,20.43
2018-07-14T06:16:32.457Z,20.43
2018-07-14T06:17:32.467Z,20.43
2018-07-14T06:18:32.226Z,20.41
2018-07-14T06:19:32.652Z,20.48
2018-07-14T06:20:32.297Z,20.48
2018-07-14T06:21:32.556Z,20.4
2018-07-14T06:22:32.052Z,20.44
2018-07-14T06:23:32.595Z,20.55
2018-07-14T06:24:32.357Z,20.48
2018-07-14T06:25:32.636Z,20.51
2018-07-14T06:26:32.668Z,20.6
2018-07-14T06:27:32.423Z,20.62
2018-07-14T06:28:32.701Z,20.52
2018-07-14T06:29:32.465Z,20.58
2018-07-14T06:30:32.751Z,20.59
2018-07-14T06:31:32.251Z,20.59
2018-07-14T06:32:32.535Z,20.63
2018-07-14T06:33:32.816Z,20.66
2018-07-14T06:34:32.844Z,20.62
2018-07-14T06:35:32.602Z,20.62
2018-07-14T06:36:32.628Z,20.69
2018-07-14T06:37:32.681Z,20.7
2018-07-14T06:38:33.131Z,20.72
2018-07-14T06:39:32.688Z,20.74
2018-07-14T06:40:33.004Z,20.75
2018-07-14T06:41:32.994Z,20.72
2018-07-14T06:42:32.761Z,20.77
2018-07-14T06:43:33.053Z,20.74
2018-07-14T06:44:33.058Z,20.75
2018-07-14T06:45:33.080Z,20.82
2018-07-14T06:46:33.104Z,20.81
2018-07-14T06:47:32.868Z,20.84
2018-07-14T06:48:33.147Z,20.9
2018-07-14T06:49:33.171Z,20.85
2018-07-14T06:50:33.193Z,20.88
2018-07-14T06:51:33.213Z,20.93
2018-07-14T06:52:32.981Z,20.9
2018-07-14T06:53:33.007Z,20.93
2018-07-14T06:54:32.762Z,20.96
2018-07-14T06:55:33.050Z,20.97
2018-07-14T06:56:33.335Z,20.9
2018-07-14T06:57:33.345Z,20.96
2018-07-14T06:58:33.375Z,20.93
2018-07-14T06:59:33.394Z,20.95
2018-07-14T07:00:33.418Z,21.02
2018-07-14T07:01:33.438Z,21.05
2018-07-14T07:02:33.461Z,21.02
2018-07-14T07:03:32.973Z,21.05
2018-07-14T07:04:33.505Z,21.02
2018-07-14T07:05:33.526Z,21.03
2018-07-14T07:06:33.551Z,21
2018-07-14T07:07:33.573Z,21.06
2018-07-14T07:08:33.074Z,21.11
2018-07-14T07:09:33.362Z,21.12
2018-07-14T07:10:33.118Z,21.14
2018-07-14T07:11:33.405Z,21.12
2018-07-14T07:12:33.682Z,21.22
2018-07-14T07:13:33.734Z,21.2
2018-07-14T07:14:33.729Z,21.2
2018-07-14T07:15:33.752Z,21.24
2018-07-14T07:16:33.777Z,21.24
2018-07-14T07:17:33.536Z,21.29
2018-07-14T07:18:33.821Z,21.33
2018-07-14T07:19:33.840Z,21.35
2018-07-14T07:20:33.864Z,21.37
2018-07-14T07:21:34.214Z,21.46
2018-07-14T07:22:33.946Z,21.4
2018-07-14T07:23:33.942Z,21.4
2018-07-14T07:24:33.694Z,21.43
2018-07-14T07:25:33.978Z,21.52
2018-07-14T07:26:33.996Z,21.52
2018-07-14T07:27:33.763Z,21.48
2018-07-14T07:28:34.043Z,21.61
2018-07-14T07:29:34.067Z,21.61
2018-07-14T07:30:34.127Z,21.62
2018-07-14T07:31:34.111Z,21.57
2018-07-14T07:32:34.131Z,21.73
2018-07-14T07:33:34.158Z,21.73
2018-07-14T07:34:33.952Z,21.76
2018-07-14T07:35:34.203Z,21.82
2018-07-14T07:36:34.228Z,21.88
2018-07-14T07:37:34.016Z,21.92
2018-07-14T07:38:34.266Z,21.92
2018-07-14T07:39:34.293Z,21.99
2018-07-14T07:40:34.321Z,22.04
2018-07-14T07:41:34.093Z,22
2018-07-14T07:42:34.112Z,22.18
2018-07-14T07:43:33.867Z,22.17
2018-07-14T07:44:34.408Z,22.28
2018-07-14T07:45:34.431Z,22.23
2018-07-14T07:46:34.452Z,22.26
2018-07-14T07:47:34.218Z,22.3
2018-07-14T07:48:34.233Z,22.36
2018-07-14T07:49:34.518Z,22.48
2018-07-14T07:50:34.542Z,22.5
2018-07-14T07:51:34.567Z,22.47
2018-07-14T07:52:34.329Z,22.48
2018-07-14T07:53:34.619Z,22.55
2018-07-14T07:54:34.637Z,22.62
2018-07-14T07:55:34.391Z,22.69
2018-07-14T07:56:34.421Z,22.65
2018-07-14T07:57:34.699Z,22.68
2018-07-14T07:58:34.467Z,22.81
2018-07-14T07:59:34.748Z,22.87
2018-07-14T08:00:34.773Z,22.88
2018-07-14T08:01:34.792Z,22.88
2018-07-14T08:02:34.554Z,22.99
2018-07-14T08:03:34.848Z,23.03
2018-07-14T08:04:34.863Z,23.09
2018-07-14T08:05:34.889Z,23.15
2018-07-14T08:06:34.906Z,23.21
2018-07-14T08:07:34.962Z,23.31
2018-07-14T08:08:35.036Z,23.31
2018-07-14T08:09:34.975Z,23.31
2018-07-14T08:10:34.996Z,23.36
2018-07-14T08:11:35.028Z,23.44
2018-07-14T08:12:35.048Z,23.55
2018-07-14T08:13:35.071Z,23.55
2018-07-14T08:14:35.137Z,23.58
2018-07-14T08:15:34.856Z,23.66
2018-07-14T08:16:35.135Z,23.74
2018-07-14T08:17:35.171Z,23.71
2018-07-14T08:18:35.180Z,23.71
2018-07-14T08:19:35.207Z,23.8
2018-07-14T08:20:34.979Z,23.86
2018-07-14T08:21:34.997Z,23.84
2018-07-14T08:22:35.035Z,24.01
2018-07-14T08:23:35.303Z,24.05
2018-07-14T08:24:35.332Z,24.03
2018-07-14T08:25:35.093Z,24.14
2018-07-14T08:26:35.110Z,24.2
2018-07-14T08:27:35.406Z,24.26
2018-07-14T08:28:34.895Z,24.33
2018-07-14T08:29:35.194Z,24.4
2018-07-14T08:30:35.463Z,24.47
2018-07-14T08:31:35.496Z,24.51
2018-07-14T08:32:35.670Z,24.57
2018-07-14T08:33:35.272Z,24.57
2018-07-14T08:34:35.556Z,24.65
2018-07-14T08:35:35.584Z,24.6
2018-07-14T08:36:35.350Z,24.74
2018-07-14T08:37:35.635Z,24.74
2018-07-14T08:38:35.649Z,24.86
2018-07-14T08:39:35.676Z,24.85
2018-07-14T08:40:35.441Z,24.89
2018-07-14T08:41:35.725Z,24.98
2018-07-14T08:42:35.485Z,25.01
2018-07-14T08:43:35.508Z,25.16
2018-07-14T08:44:35.811Z,25.17
2018-07-14T08:45:35.823Z,25.21
2018-07-14T08:46:35.863Z,25.32
2018-07-14T08:47:35.863Z,25.35
2018-07-14T08:48:35.895Z,25.44
2018-07-14T08:49:35.917Z,25.47
2018-07-14T08:50:35.847Z,25.5
2018-07-14T08:51:36.293Z,25.54
2018-07-14T08:52:35.730Z,25.65
2018-07-14T08:53:36.008Z,25.73
2018-07-14T08:54:36.039Z,25.66
2018-07-14T08:55:35.798Z,25.83
2018-07-14T08:56:36.079Z,25.91
2018-07-14T08:57:36.110Z,25.99
2018-07-14T08:58:35.868Z,26.02
2018-07-14T08:59:35.897Z,26.1
2018-07-14T09:00:35.918Z,26.13
2018-07-14T09:01:36.199Z,26.23
2018-07-14T09:02:36.242Z,26.09
2018-07-14T09:03:36.423Z,26.29
2018-07-14T09:04:36.020Z,26.23
2018-07-14T09:05:36.297Z,26.38
2018-07-14T09:06:36.066Z,26.45
2018-07-14T09:07:36.100Z,26.53
2018-07-14T09:08:36.149Z,26.56
2018-07-14T09:09:36.138Z,26.65
2018-07-14T09:10:36.423Z,26.65
2018-07-14T09:11:36.452Z,26.73
2018-07-14T09:12:36.211Z,26.73
2018-07-14T09:13:36.233Z,26.78
2018-07-14T09:14:36.408Z,26.96
2018-07-14T09:15:36.028Z,26.93
2018-07-14T09:16:36.936Z,27.03
2018-07-14T09:17:36.598Z,27.07
2018-07-14T09:18:36.622Z,27.17
2018-07-14T09:19:36.383Z,27.25
2018-07-14T09:20:36.668Z,27.29
2018-07-14T09:21:36.700Z,27.26
2018-07-14T09:22:36.724Z,27.44
2018-07-14T09:23:36.750Z,27.47
2018-07-14T09:24:36.777Z,27.49
2018-07-14T09:25:36.536Z,27.49
2018-07-14T09:26:36.822Z,27.45
2018-07-14T09:27:36.850Z,27.6
2018-07-14T09:28:36.620Z,27.6
2018-07-14T09:29:36.906Z,27.58
2018-07-14T09:30:36.927Z,27.64
2018-07-14T09:31:36.687Z,27.68
2018-07-14T09:32:37.215Z,27.83
2018-07-14T09:33:36.749Z,27.83
2018-07-14T09:34:37.022Z,27.87
2018-07-14T09:35:37.045Z,27.98
2018-07-14T09:36:36.813Z,27.98
2018-07-14T09:37:37.100Z,28.02
2018-07-14T09:38:37.121Z,28.11
2018-07-14T09:39:37.152Z,28.22
2018-07-14T09:40:37.178Z,28.26
2018-07-14T09:41:36.986Z,28.37
2018-07-14T09:42:36.965Z,28.38
2018-07-14T09:43:37.255Z,28.45
2018-07-14T09:44:36.808Z,28.62
2018-07-14T09:45:36.782Z,28.63
2018-07-14T09:46:37.334Z,28.78
2018-07-14T09:47:37.115Z,28.76
2018-07-14T09:48:37.122Z,28.84
2018-07-14T09:49:37.404Z,28.85
2018-07-14T09:50:37.437Z,29.01
2018-07-14T09:51:37.523Z,29.02
2018-07-14T09:52:37.483Z,29.08
2018-07-14T09:53:37.252Z,29.13
2018-07-14T09:54:37.276Z,29.23
2018-07-14T09:55:37.564Z,29.34
2018-07-14T09:56:37.592Z,29.38
2018-07-14T09:57:37.355Z,29.47
2018-07-14T09:58:37.121Z,29.53
2018-07-14T09:59:37.417Z,29.54
2018-07-14T10:00:37.178Z,29.65
2018-07-14T10:01:37.719Z,29.72
2018-07-14T10:02:37.749Z,29.78
2018-07-14T10:03:37.965Z,29.79
2018-07-14T10:04:37.280Z,29.94
2018-07-14T10:05:37.826Z,30
2018-07-14T10:06:37.603Z,30.06
2018-07-14T10:07:37.877Z,30.03
2018-07-14T10:08:37.384Z,30.16
2018-07-14T10:09:37.414Z,30.21
2018-07-14T10:10:37.961Z,30.25
2018-07-14T10:11:37.727Z,30.39
2018-07-14T10:12:38.025Z,30.47
2018-07-14T10:13:38.049Z,30.44
2018-07-14T10:14:38.075Z,30.57
2018-07-14T10:15:38.094Z,30.63
2018-07-14T10:16:38.127Z,30.75
2018-07-14T10:17:38.228Z,30.7
2018-07-14T10:18:38.175Z,30.77
2018-07-14T10:19:38.206Z,30.94
2018-07-14T10:20:38.227Z,30.99
2018-07-14T10:21:37.997Z,31.02
2018-07-14T10:22:38.293Z,31.09
2018-07-14T10:23:38.050Z,31.21
2018-07-14T10:24:38.337Z,31.29
2018-07-14T10:25:38.753Z,31.39
2018-07-14T10:26:38.399Z,31.34
2018-07-14T10:27:38.164Z,31.39
2018-07-14T10:28:38.452Z,31.51
2018-07-14T10:29:38.214Z,31.55
2018-07-14T10:30:37.982Z,31.64
2018-07-14T10:31:38.554Z,31.7
2018-07-14T10:32:38.560Z,31.73
2018-07-14T10:33:38.755Z,31.9
2018-07-14T10:34:38.616Z,31.92
2018-07-14T10:35:38.645Z,32
2018-07-14T10:36:38.413Z,32.09
2018-07-14T10:37:38.440Z,32.15
2018-07-14T10:38:38.520Z,32.22
2018-07-14T10:39:38.498Z,32.3
2018-07-14T10:40:38.523Z,32.37
2018-07-14T10:41:38.824Z,32.46
2018-07-14T10:42:38.992Z,32.56
2018-07-14T10:43:38.917Z,32.55
2018-07-14T10:44:38.896Z,32.65
2018-07-14T10:45:38.668Z,32.73
2018-07-14T10:46:39.064Z,32.75
2018-07-14T10:47:38.721Z,32.89
2018-07-14T10:48:38.749Z,32.9
2018-07-14T10:49:39.043Z,32.96
2018-07-14T10:50:38.805Z,32.93
2018-07-14T10:51:39.339Z,32.97
2018-07-14T10:52:38.863Z,33.11
2018-07-14T10:53:39.153Z,33.17
2018-07-14T10:54:39.189Z,33.23
2018-07-14T10:55:39.216Z,33.37
2018-07-14T10:56:39.434Z,33.42
2018-07-14T10:57:39.011Z,33.45
2018-07-14T10:58:39.043Z,33.43
2018-07-14T10:59:38.810Z,33.57
2018-07-14T11:00:39.362Z,33.65
2018-07-14T11:01:39.137Z,33.69
2018-07-14T11:02:39.413Z,33.76
2018-07-14T11:03:39.444Z,33.87
2018-07-14T11:04:39.590Z,33.87
2018-07-14T11:05:39.243Z,33.94
2018-07-14T11:06:39.535Z,34.05
2018-07-14T11:07:39.039Z,34.1
2018-07-14T11:08:39.596Z,34.1
2018-07-14T11:09:39.620Z,34.24
2018-07-14T11:10:39.387Z,34.23
2018-07-14T11:11:39.682Z,34.33
2018-07-14T11:12:39.708Z,34.47
2018-07-14T11:13:39.739Z,34.45
2018-07-14T11:14:39.766Z,34.52
2018-07-14T11:15:39.805Z,34.57
2018-07-14T11:16:39.828Z,34.57
2018-07-14T11:17:39.894Z,34.7
2018-07-14T11:18:39.625Z,34.75
2018-07-14T11:19:39.919Z,34.83
2018-07-14T11:20:39.952Z,34.75
2018-07-14T11:21:39.977Z,34.92
2018-07-14T11:22:40.011Z,34.93
2018-07-14T11:23:39.868Z,35.04
2018-07-14T11:24:40.063Z,35.05
2018-07-14T11:25:39.836Z,35.14
2018-07-14T11:26:40.128Z,35.17
2018-07-14T11:27:39.900Z,35.17
2018-07-14T11:28:40.189Z,35.26
2018-07-14T11:29:40.220Z,35.33
2018-07-14T11:30:40.251Z,35.44
2018-07-14T11:31:40.282Z,35.55
2018-07-14T11:32:40.315Z,35.56
2018-07-14T11:33:40.089Z,35.66
2018-07-14T11:34:39.888Z,35.67
2018-07-14T11:35:40.398Z,35.74
2018-07-14T11:36:40.172Z,35.89
2018-07-14T11:37:40.300Z,35.89
2018-07-14T11:38:40.287Z,35.95
2018-07-14T11:39:40.269Z,36.05
2018-07-14T11:40:40.557Z,36.17
2018-07-14T11:41:40.595Z,36.17
2018-07-14T11:42:40.619Z,36.27
2018-07-14T11:43:40.392Z,36.3
2018-07-14T11:44:40.674Z,36.36
2018-07-14T11:45:40.455Z,36.45
2018-07-14T11:46:40.749Z,36.47
2018-07-14T11:47:41.353Z,36.55
2018-07-14T11:48:40.808Z,36.61
2018-07-14T11:49:40.315Z,36.67
2018-07-14T11:50:40.868Z,36.76
2018-07-14T11:51:40.897Z,36.8
2018-07-14T11:52:40.928Z,36.83
2018-07-14T11:53:40.958Z,36.93
2018-07-14T11:54:40.994Z,36.95
2018-07-14T11:55:41.259Z,37.06
2018-07-14T11:56:41.066Z,37.11
2018-07-14T11:57:41.084Z,37.17
2018-07-14T11:58:40.859Z,37.21
2018-07-14T11:59:40.895Z,37.23
2018-07-14T12:00:41.188Z,37.32
2018-07-14T12:01:40.955Z,37.35
2018-07-14T12:02:41.315Z,37.4
2018-07-14T12:03:41.291Z,37.56
2018-07-14T12:04:41.054Z,37.49
2018-07-14T12:05:41.665Z,37.59
2018-07-14T12:06:41.684Z,37.6
2018-07-14T12:07:41.405Z,37.67
2018-07-14T12:08:41.181Z,37.82
2018-07-14T12:09:41.471Z,37.83
2018-07-14T12:10:41.249Z,37.93
2018-07-14T12:11:41.534Z,37.96
2018-07-14T12:12:41.567Z,38.05
2018-07-14T12:13:41.607Z,38.08
2018-07-14T12:14:41.633Z,38.06
2018-07-14T12:15:41.148Z,38.14
2018-07-14T12:16:41.700Z,38.26
2018-07-14T12:17:41.729Z,38.24
2018-07-14T12:18:41.763Z,38.36
2018-07-14T12:19:41.798Z,38.34
2018-07-14T12:20:41.567Z,38.45
2018-07-14T12:21:41.874Z,38.49
2018-07-14T12:22:41.633Z,38.4
2018-07-14T12:23:41.935Z,38.54
2018-07-14T12:24:41.705Z,38.48
2018-07-14T12:25:41.733Z,38.62
2018-07-14T12:26:42.105Z,38.65
2018-07-14T12:27:41.816Z,38.74
2018-07-14T12:28:42.093Z,38.76
2018-07-14T12:29:42.167Z,38.86
2018-07-14T12:30:41.998Z,38.92
2018-07-14T12:31:42.196Z,38.97
2018-07-14T12:32:42.230Z,39.02
2018-07-14T12:33:42.259Z,39.04
2018-07-14T12:34:42.037Z,39.09
2018-07-14T12:35:42.068Z,39.18
2018-07-14T12:36:42.563Z,39.17
2018-07-14T12:37:42.390Z,39.22
2018-07-14T12:38:42.168Z,39.34
2018-07-14T12:39:42.507Z,39.34
2018-07-14T12:40:42.238Z,39.34
2018-07-14T12:41:42.524Z,39.4
2018-07-14T12:42:42.301Z,39.38
2018-07-14T12:43:42.596Z,39.44
2018-07-14T12:44:42.364Z,39.51
2018-07-14T12:45:42.654Z,39.58
2018-07-14T12:46:42.691Z,39.58
2018-07-14T12:47:42.764Z,39.59
2018-07-14T12:48:42.761Z,39.68
2018-07-14T12:49:42.533Z,39.65
2018-07-14T12:50:42.837Z,39.81
2018-07-14T12:51:42.861Z,39.89
2018-07-14T12:52:42.900Z,39.9
2018-07-14T12:53:42.993Z,39.97
2018-07-14T12:54:42.961Z,40.09
2018-07-14T12:55:42.738Z,40.2
2018-07-14T12:56:42.769Z,40.16